Accueil
METAR-TAF:

METAR-TAF

Aéroports :

Ancône, Italie

latitude: 43-37N, longitude: 013-22E, altitude: 12 m

Observation

Le bulletin a été fait il y a 49 minutes, à 11:20 UTC
Vent 11 kt de nord
Température 25°C
Humidité 74%
Pression 1018 hPa
Visibilité 10 km ou plus

METAR: LIPY 121120Z AUTO 35011KT 9999 NCD 25/20 Q1018

Heure: 14:09 (12:09 UTC)

Prévision

Le bulletin a été fait il y a 1 heure et 9 minutes, à 11:00 UTC
Prévision valable du 12 à 12 UTC au 13 à 12 UTC
Vent 10 kt de nord
Visibilité 10 km ou plus
pas de nuages en-dessous de 1500 mètres et pas de cumulonimbus.
Evoluant progressivement
du 12 à 16 UTC au 12 à 18 UTC
Vent 5 kt de direction variable
Evoluant progressivement
du 13 à 10 UTC au 13 à 12 UTC
Vent 10 kt de nord/nord-est

TAF: LIPY 121100Z 1212/1312 01010KT CAVOK BECMG 1216/1218 VRB05KT BECMG 1310/1312 02010KT

Observations et prévisions météorologiques de plus de 4000 aéroports (messages METAR et TAF).

Les stations disponibles sont représentées par des disques jaunes et rouges sur la carte.

Passer la souris dessus pour voir le nom de la station.

Cliquer dessus pour voir les observations et prévisions météorologiques.

Pour changer de carte: cliquez sur les boutons verts avec une croix noire pour zoomer, sur le bouton vert avec un tiret pour effectuer un zoom arrière, ou sur les flèches vertes pour les cartes adjacentes.


METAR-TAF: